sensor_id;sensor_type;location;lat;lon;timestamp;pressure;altitude;pressure_sealevel;temperature;humidity
15932;BME280;8065;49.520;11.284;2022-10-31T00:00:44;97968.91;;;15.00;98.00
15932;BME280;8065;49.520;11.284;2022-10-31T00:03:10;97977.16;;;14.95;97.90
15932;BME280;8065;49.520;11.284;2022-10-31T00:05:40;97971.34;;;14.81;97.42
15932;BME280;8065;49.520;11.284;2022-10-31T00:08:06;97973.81;;;14.61;98.42
15932;BME280;8065;49.520;11.284;2022-10-31T00:10:37;97968.22;;;14.79;97.74
15932;BME280;8065;49.520;11.284;2022-10-31T00:13:03;97978.06;;;14.87;96.95
15932;BME280;8065;49.520;11.284;2022-10-31T00:15:30;97970.69;;;14.96;96.72
15932;BME280;8065;49.520;11.284;2022-10-31T00:17:58;97977.38;;;14.90;97.23
15932;BME280;8065;49.520;11.284;2022-10-31T00:20:24;97974.69;;;14.77;97.67
15932;BME280;8065;49.520;11.284;2022-10-31T00:22:51;97977.38;;;14.77;98.06
15932;BME280;8065;49.520;11.284;2022-10-31T00:25:17;97977.38;;;14.77;98.60
15932;BME280;8065;49.520;11.284;2022-10-31T00:27:46;97981.28;;;14.80;98.86
15932;BME280;8065;49.520;11.284;2022-10-31T00:30:13;97985.41;;;14.90;98.53
15932;BME280;8065;49.520;11.284;2022-10-31T00:32:39;97978.72;;;14.84;98.80
15932;BME280;8065;49.520;11.284;2022-10-31T00:35:06;97980.28;;;14.85;98.56
15932;BME280;8065;49.520;11.284;2022-10-31T00:37:33;97986.97;;;14.79;98.37
15932;BME280;8065;49.520;11.284;2022-10-31T00:39:59;97988.31;;;14.85;97.80
15932;BME280;8065;49.520;11.284;2022-10-31T00:42:26;97978.81;;;14.75;98.32
15932;BME280;8065;49.520;11.284;2022-10-31T00:44:53;97979.81;;;14.58;99.32
15932;BME280;8065;49.520;11.284;2022-10-31T00:47:20;97982.69;;;14.53;99.84
15932;BME280;8065;49.520;11.284;2022-10-31T00:49:46;97983.38;;;14.62;99.38
15932;BME280;8065;49.520;11.284;2022-10-31T00:52:13;97988.63;;;14.59;98.93
15932;BME280;8065;49.520;11.284;2022-10-31T00:54:39;97985.41;;;14.65;98.78
15932;BME280;8065;49.520;11.284;2022-10-31T00:57:05;97983.13;;;14.43;99.59
15932;BME280;8065;49.520;11.284;2022-10-31T00:59:32;97984.25;;;14.54;99.07
15932;BME280;8065;49.520;11.284;2022-10-31T01:02:00;97988.91;;;14.45;98.94
15932;BME280;8065;49.520;11.284;2022-10-31T01:04:26;97984.91;;;14.51;98.75
15932;BME280;8065;49.520;11.284;2022-10-31T01:06:52;97985.56;;;14.48;97.81
15932;BME280;8065;49.520;11.284;2022-10-31T01:09:19;97986.41;;;14.40;98.42
15932;BME280;8065;49.520;11.284;2022-10-31T01:11:45;97985.50;;;14.36;98.47
15932;BME280;8065;49.520;11.284;2022-10-31T01:14:13;97982.13;;;14.27;98.50
15932;BME280;8065;49.520;11.284;2022-10-31T01:16:39;97982.34;;;14.22;99.02
15932;BME280;8065;49.520;11.284;2022-10-31T01:19:07;97987.88;;;14.17;98.68
15932;BME280;8065;49.520;11.284;2022-10-31T01:21:33;97975.19;;;14.14;99.04
15932;BME280;8065;49.520;11.284;2022-10-31T01:24:00;97978.19;;;13.91;99.90
15932;BME280;8065;49.520;11.284;2022-10-31T01:26:29;97975.75;;;13.86;100.00
15932;BME280;8065;49.520;11.284;2022-10-31T01:28:58;97975.63;;;13.62;100.00
15932;BME280;8065;49.520;11.284;2022-10-31T01:31:26;97981.22;;;13.69;100.00
15932;BME280;8065;49.520;11.284;2022-10-31T01:33:53;97972.56;;;13.72;100.00
15932;BME280;8065;49.520;11.284;2022-10-31T01:36:23;97972.84;;;13.91;99.86
15932;BME280;8065;49.520;11.284;2022-10-31T01:38:51;97976.28;;;13.80;100.00
15932;BME280;8065;49.520;11.284;2022-10-31T01:41:20;97974.84;;;13.82;100.00
15932;BME280;8065;49.520;11.284;2022-10-31T01:43:50;97970.00;;;13.75;100.00
15932;BME280;8065;49.520;11.284;2022-10-31T01:46:20;97968.31;;;13.71;100.00
15932;BME280;8065;49.520;11.284;2022-10-31T01:48:48;97976.78;;;13.73;99.58
15932;BME280;8065;49.520;11.284;2022-10-31T01:51:17;97975.69;;;13.74;99.12
15932;BME280;8065;49.520;11.284;2022-10-31T01:53:46;97969.22;;;13.75;99.31
15932;BME280;8065;49.520;11.284;2022-10-31T01:56:13;97956.06;;;13.70;99.06
15932;BME280;8065;49.520;11.284;2022-10-31T01:58:42;97964.47;;;13.60;100.00
15932;BME280;8065;49.520;11.284;2022-10-31T02:01:08;97965.19;;;13.48;100.00
15932;BME280;8065;49.520;11.284;2022-10-31T02:03:35;97970.72;;;13.64;100.00
15932;BME280;8065;49.520;11.284;2022-10-31T02:06:03;97961.81;;;13.60;100.00
15932;BME280;8065;49.520;11.284;2022-10-31T02:08:34;97963.03;;;13.62;100.00
15932;BME280;8065;49.520;11.284;2022-10-31T02:11:03;97957.69;;;13.62;100.00
15932;BME280;8065;49.520;11.284;2022-10-31T02:13:30;97963.09;;;13.74;99.78
15932;BME280;8065;49.520;11.284;2022-10-31T02:15:58;97958.81;;;13.82;99.20
15932;BME280;8065;49.520;11.284;2022-10-31T02:18:27;97958.34;;;13.80;98.96
15932;BME280;8065;49.520;11.284;2022-10-31T02:20:59;97955.88;;;13.75;98.97
15932;BME280;8065;49.520;11.284;2022-10-31T02:24:00;97952.16;;;13.67;98.65
15932;BME280;8065;49.520;11.284;2022-10-31T02:26:45;97953.47;;;13.61;99.04
15932;BME280;8065;49.520;11.284;2022-10-31T02:32:27;97956.59;;;13.84;98.33
15932;BME280;8065;49.520;11.284;2022-10-31T02:34:59;97957.91;;;13.78;98.17
15932;BME280;8065;49.520;11.284;2022-10-31T02:37:35;97957.63;;;13.71;98.74
15932;BME280;8065;49.520;11.284;2022-10-31T02:40:07;97955.94;;;13.45;100.00
15932;BME280;8065;49.520;11.284;2022-10-31T02:42:42;97953.06;;;13.51;100.00
15932;BME280;8065;49.520;11.284;2022-10-31T02:45:17;97960.81;;;13.64;99.53
15932;BME280;8065;49.520;11.284;2022-10-31T02:47:49;97955.69;;;13.59;98.58
15932;BME280;8065;49.520;11.284;2022-10-31T02:50:19;97958.13;;;13.43;100.00
15932;BME280;8065;49.520;11.284;2022-10-31T02:52:50;97955.66;;;13.38;100.00
15932;BME280;8065;49.520;11.284;2022-10-31T02:55:49;97964.44;;;13.39;100.00
15932;BME280;8065;49.520;11.284;2022-10-31T02:58:20;97962.25;;;13.41;99.53
15932;BME280;8065;49.520;11.284;2022-10-31T03:03:53;97957.50;;;13.47;98.72
15932;BME280;8065;49.520;11.284;2022-10-31T03:06:29;97970.13;;;13.37;98.52
15932;BME280;8065;49.520;11.284;2022-10-31T03:09:04;97963.03;;;13.41;99.17
15932;BME280;8065;49.520;11.284;2022-10-31T03:11:39;97962.84;;;13.47;97.78
15932;BME280;8065;49.520;11.284;2022-10-31T03:14:12;97960.53;;;13.36;98.36
15932;BME280;8065;49.520;11.284;2022-10-31T03:16:46;97963.84;;;13.33;99.17
15932;BME280;8065;49.520;11.284;2022-10-31T03:19:17;97953.69;;;13.27;98.53
15932;BME280;8065;49.520;11.284;2022-10-31T03:21:46;97956.41;;;13.18;98.49
15932;BME280;8065;49.520;11.284;2022-10-31T03:24:14;97960.19;;;13.17;98.37
15932;BME280;8065;49.520;11.284;2022-10-31T03:26:42;97965.97;;;13.19;98.48
15932;BME280;8065;49.520;11.284;2022-10-31T03:29:13;97958.38;;;13.30;97.86
15932;BME280;8065;49.520;11.284;2022-10-31T03:31:46;97962.66;;;13.22;97.85
15932;BME280;8065;49.520;11.284;2022-10-31T03:34:16;97962.22;;;13.11;98.18
15932;BME280;8065;49.520;11.284;2022-10-31T03:36:45;97959.22;;;13.13;98.52
15932;BME280;8065;49.520;11.284;2022-10-31T03:39:14;97967.06;;;13.18;97.85
15932;BME280;8065;49.520;11.284;2022-10-31T03:41:45;97956.41;;;13.18;98.23
15932;BME280;8065;49.520;11.284;2022-10-31T03:44:17;97955.31;;;13.10;98.02
15932;BME280;8065;49.520;11.284;2022-10-31T03:46:45;97955.94;;;13.16;98.21
15932;BME280;8065;49.520;11.284;2022-10-31T03:49:12;97960.00;;;13.22;98.00
15932;BME280;8065;49.520;11.284;2022-10-31T03:51:45;97960.44;;;13.24;97.62
15932;BME280;8065;49.520;11.284;2022-10-31T03:54:20;97957.81;;;13.16;97.44
15932;BME280;8065;49.520;11.284;2022-10-31T03:56:52;97968.19;;;13.08;98.68
15932;BME280;8065;49.520;11.284;2022-10-31T03:59:21;97962.94;;;13.00;98.76
15932;BME280;8065;49.520;11.284;2022-10-31T04:01:52;97964.03;;;12.99;99.06
15932;BME280;8065;49.520;11.284;2022-10-31T04:04:20;97961.00;;;13.00;98.83
15932;BME280;8065;49.520;11.284;2022-10-31T04:06:50;97968.16;;;12.88;98.88
15932;BME280;8065;49.520;11.284;2022-10-31T04:09:18;97964.88;;;12.82;99.44
15932;BME280;8065;49.520;11.284;2022-10-31T04:11:48;97968.97;;;12.79;99.44
15932;BME280;8065;49.520;11.284;2022-10-31T04:14:15;97963.31;;;12.81;98.97
15932;BME280;8065;49.520;11.284;2022-10-31T04:16:43;97959.69;;;12.86;98.65
15932;BME280;8065;49.520;11.284;2022-10-31T04:19:10;97959.06;;;12.89;98.28
15932;BME280;8065;49.520;11.284;2022-10-31T04:21:37;97963.59;;;12.88;97.84
15932;BME280;8065;49.520;11.284;2022-10-31T04:24:06;97959.97;;;12.93;97.32
15932;BME280;8065;49.520;11.284;2022-10-31T04:26:32;97958.41;;;12.92;97.14
15932;BME280;8065;49.520;11.284;2022-10-31T04:28:58;97958.41;;;12.92;96.98
15932;BME280;8065;49.520;11.284;2022-10-31T04:31:25;97961.53;;;12.94;96.85
15932;BME280;8065;49.520;11.284;2022-10-31T04:33:51;97966.22;;;12.97;97.07
15932;BME280;8065;49.520;11.284;2022-10-31T04:36:18;97967.34;;;12.96;97.35
15932;BME280;8065;49.520;11.284;2022-10-31T04:38:44;97963.09;;;12.95;96.71
15932;BME280;8065;49.520;11.284;2022-10-31T04:41:12;97975.53;;;12.91;97.52
15932;BME280;8065;49.520;11.284;2022-10-31T04:43:39;97973.19;;;12.80;97.43
15932;BME280;8065;49.520;11.284;2022-10-31T04:46:05;97968.19;;;12.79;97.83
15932;BME280;8065;49.520;11.284;2022-10-31T04:48:31;97968.50;;;12.77;97.89
15932;BME280;8065;49.520;11.284;2022-10-31T04:50:58;97977.31;;;12.69;97.51
15932;BME280;8065;49.520;11.284;2022-10-31T04:53:25;97978.13;;;12.61;98.03
15932;BME280;8065;49.520;11.284;2022-10-31T04:55:51;97977.06;;;12.45;98.12
15932;BME280;8065;49.520;11.284;2022-10-31T04:58:19;97963.94;;;12.23;98.41
15932;BME280;8065;49.520;11.284;2022-10-31T05:00:45;97971.16;;;12.13;98.87
15932;BME280;8065;49.520;11.284;2022-10-31T05:03:12;97966.19;;;12.03;99.12
15932;BME280;8065;49.520;11.284;2022-10-31T05:05:38;97966.75;;;12.18;98.24
15932;BME280;8065;49.520;11.284;2022-10-31T05:08:05;97958.03;;;12.08;98.01
15932;BME280;8065;49.520;11.284;2022-10-31T05:10:31;97963.97;;;12.05;98.42
15932;BME280;8065;49.520;11.284;2022-10-31T05:12:59;97960.84;;;12.03;99.22
15932;BME280;8065;49.520;11.284;2022-10-31T05:15:27;97962.56;;;11.99;99.85
15932;BME280;8065;49.520;11.284;2022-10-31T05:17:54;97962.09;;;11.97;99.37
15932;BME280;8065;49.520;11.284;2022-10-31T05:20:24;97965.09;;;11.96;99.49
15932;BME280;8065;49.520;11.284;2022-10-31T05:22:53;97968.06;;;11.77;100.00
15932;BME280;8065;49.520;11.284;2022-10-31T05:25:22;97962.53;;;11.73;100.00
15932;BME280;8065;49.520;11.284;2022-10-31T05:27:50;97970.53;;;11.73;100.00
15932;BME280;8065;49.520;11.284;2022-10-31T05:30:19;97950.63;;;11.54;100.00
15932;BME280;8065;49.520;11.284;2022-10-31T05:32:49;97959.09;;;11.64;100.00
15932;BME280;8065;49.520;11.284;2022-10-31T05:35:18;97955.31;;;11.57;100.00
15932;BME280;8065;49.520;11.284;2022-10-31T05:37:45;97950.78;;;11.66;100.00
15932;BME280;8065;49.520;11.284;2022-10-31T05:40:13;97949.91;;;11.79;100.00
15932;BME280;8065;49.520;11.284;2022-10-31T05:42:41;97948.00;;;11.79;100.00
15932;BME280;8065;49.520;11.284;2022-10-31T05:45:08;97945.34;;;11.79;100.00
15932;BME280;8065;49.520;11.284;2022-10-31T05:47:35;97947.03;;;11.67;100.00
15932;BME280;8065;49.520;11.284;2022-10-31T05:50:04;97947.03;;;11.67;100.00
15932;BME280;8065;49.520;11.284;2022-10-31T05:52:31;97945.47;;;11.66;100.00
15932;BME280;8065;49.520;11.284;2022-10-31T05:54:57;97952.69;;;11.74;100.00
15932;BME280;8065;49.520;11.284;2022-10-31T05:57:24;97958.78;;;11.74;100.00
15932;BME280;8065;49.520;11.284;2022-10-31T05:59:50;97958.97;;;11.78;100.00
15932;BME280;8065;49.520;11.284;2022-10-31T06:02:18;97951.00;;;11.87;100.00
15932;BME280;8065;49.520;11.284;2022-10-31T06:04:44;97954.91;;;11.89;100.00
15932;BME280;8065;49.520;11.284;2022-10-31T06:07:12;97958.03;;;11.91;100.00
15932;BME280;8065;49.520;11.284;2022-10-31T06:09:38;97958.03;;;12.00;100.00
15932;BME280;8065;49.520;11.284;2022-10-31T06:12:05;97959.91;;;11.99;100.00
15932;BME280;8065;49.520;11.284;2022-10-31T06:14:31;97957.25;;;12.08;99.99
15932;BME280;8065;49.520;11.284;2022-10-31T06:16:58;97960.34;;;12.19;99.65
15932;BME280;8065;49.520;11.284;2022-10-31T06:19:24;97964.88;;;12.27;99.45
15932;BME280;8065;49.520;11.284;2022-10-31T06:21:51;97966.44;;;12.28;99.10
15932;BME280;8065;49.520;11.284;2022-10-31T06:24:19;97972.06;;;12.35;99.22
15932;BME280;8065;49.520;11.284;2022-10-31T06:26:45;97968.31;;;12.36;99.12
15932;BME280;8065;49.520;11.284;2022-10-31T06:29:11;97970.81;;;12.41;99.08
15932;BME280;8065;49.520;11.284;2022-10-31T06:31:38;97964.53;;;12.45;98.97
15932;BME280;8065;49.520;11.284;2022-10-31T06:34:04;97973.31;;;12.46;99.62
15932;BME280;8065;49.520;11.284;2022-10-31T06:36:31;97968.25;;;12.53;99.51
15932;BME280;8065;49.520;11.284;2022-10-31T06:38:57;97972.50;;;12.54;100.00
15932;BME280;8065;49.520;11.284;2022-10-31T06:41:25;97970.28;;;12.56;100.00
15932;BME280;8065;49.520;11.284;2022-10-31T06:43:52;97971.56;;;12.50;100.00
15932;BME280;8065;49.520;11.284;2022-10-31T06:46:18;97969.97;;;12.58;100.00
15932;BME280;8065;49.520;11.284;2022-10-31T06:48:45;97966.22;;;12.59;100.00
15932;BME280;8065;49.520;11.284;2022-10-31T06:51:11;97967.00;;;12.59;100.00
15932;BME280;8065;49.520;11.284;2022-10-31T06:53:37;97962.09;;;12.70;100.00
15932;BME280;8065;49.520;11.284;2022-10-31T06:56:04;97970.59;;;12.63;100.00
15932;BME280;8065;49.520;11.284;2022-10-31T06:58:32;97973.06;;;12.77;100.00
15932;BME280;8065;49.520;11.284;2022-10-31T07:00:59;97971.28;;;12.90;100.00
15932;BME280;8065;49.520;11.284;2022-10-31T07:03:26;97969.63;;;13.06;99.42
15932;BME280;8065;49.520;11.284;2022-10-31T07:05:55;97978.69;;;13.13;99.15
15932;BME280;8065;49.520;11.284;2022-10-31T07:08:21;97971.91;;;13.25;99.29
15932;BME280;8065;49.520;11.284;2022-10-31T07:10:52;97970.00;;;13.55;98.34
15932;BME280;8065;49.520;11.284;2022-10-31T07:13:19;97973.25;;;13.60;98.87
15932;BME280;8065;49.520;11.284;2022-10-31T07:15:51;97968.78;;;13.73;98.71
15932;BME280;8065;49.520;11.284;2022-10-31T07:18:18;97969.38;;;13.78;98.18
15932;BME280;8065;49.520;11.284;2022-10-31T07:20:44;97975.97;;;13.93;98.52
15932;BME280;8065;49.520;11.284;2022-10-31T07:23:11;97971.94;;;14.08;98.10
15932;BME280;8065;49.520;11.284;2022-10-31T07:25:38;97970.75;;;14.18;97.00
15932;BME280;8065;49.520;11.284;2022-10-31T07:28:04;97971.94;;;14.41;96.60
15932;BME280;8065;49.520;11.284;2022-10-31T07:30:30;97968.44;;;14.61;95.36
15932;BME280;8065;49.520;11.284;2022-10-31T07:32:58;97974.50;;;14.70;96.28
15932;BME280;8065;49.520;11.284;2022-10-31T07:35:26;97976.47;;;14.73;96.18
15932;BME280;8065;49.520;11.284;2022-10-31T07:37:53;97973.81;;;14.86;96.66
15932;BME280;8065;49.520;11.284;2022-10-31T07:40:21;97973.38;;;15.08;95.88
15932;BME280;8065;49.520;11.284;2022-10-31T07:42:50;97981.41;;;15.32;95.57
15932;BME280;8065;49.520;11.284;2022-10-31T07:45:17;97977.13;;;15.68;93.98
15932;BME280;8065;49.520;11.284;2022-10-31T07:47:46;97975.13;;;15.65;93.71
15932;BME280;8065;49.520;11.284;2022-10-31T07:50:15;97972.38;;;15.89;92.79
15932;BME280;8065;49.520;11.284;2022-10-31T07:52:42;97969.91;;;15.96;91.86
15932;BME280;8065;49.520;11.284;2022-10-31T07:55:09;97963.19;;;16.30;89.41
15932;BME280;8065;49.520;11.284;2022-10-31T07:57:36;97966.63;;;16.31;88.98
15932;BME280;8065;49.520;11.284;2022-10-31T08:00:03;97968.34;;;16.67;89.46
15932;BME280;8065;49.520;11.284;2022-10-31T08:02:30;97962.81;;;16.91;88.20
15932;BME280;8065;49.520;11.284;2022-10-31T08:04:56;97955.78;;;17.18;86.73
15932;BME280;8065;49.520;11.284;2022-10-31T08:07:24;97954.06;;;17.10;86.90
15932;BME280;8065;49.520;11.284;2022-10-31T08:09:50;97955.31;;;17.32;87.05
15932;BME280;8065;49.520;11.284;2022-10-31T08:12:17;97950.25;;;17.46;86.05
15932;BME280;8065;49.520;11.284;2022-10-31T08:14:43;97953.78;;;18.05;84.58
15932;BME280;8065;49.520;11.284;2022-10-31T08:17:10;97953.38;;;17.83;84.69
15932;BME280;8065;49.520;11.284;2022-10-31T08:19:36;97944.16;;;18.04;84.24
15932;BME280;8065;49.520;11.284;2022-10-31T08:22:03;97949.69;;;18.33;83.73
15932;BME280;8065;49.520;11.284;2022-10-31T08:24:31;97951.75;;;18.40;81.65
15932;BME280;8065;49.520;11.284;2022-10-31T08:26:57;97944.22;;;18.49;83.51
15932;BME280;8065;49.520;11.284;2022-10-31T08:29:24;97938.69;;;18.61;82.71
15932;BME280;8065;49.520;11.284;2022-10-31T08:31:50;97945.91;;;18.57;82.36
15932;BME280;8065;49.520;11.284;2022-10-31T08:34:16;97946.22;;;18.33;83.64
15932;BME280;8065;49.520;11.284;2022-10-31T08:36:43;97938.03;;;18.91;82.34
15932;BME280;8065;49.520;11.284;2022-10-31T08:39:11;97937.00;;;19.52;79.43
15932;BME280;8065;49.520;11.284;2022-10-31T08:41:39;97941.34;;;19.90;78.77
15932;BME280;8065;49.520;11.284;2022-10-31T08:44:05;97934.41;;;20.26;76.40
15932;BME280;8065;49.520;11.284;2022-10-31T08:46:31;97925.69;;;20.84;75.84
15932;BME280;8065;49.520;11.284;2022-10-31T08:48:58;97932.13;;;20.69;76.62
15932;BME280;8065;49.520;11.284;2022-10-31T08:51:24;97928.03;;;20.89;75.35
15932;BME280;8065;49.520;11.284;2022-10-31T08:53:51;97929.25;;;20.95;76.36
15932;BME280;8065;49.520;11.284;2022-10-31T08:56:17;97927.69;;;20.94;75.25
15932;BME280;8065;49.520;11.284;2022-10-31T08:58:45;97932.56;;;21.25;74.68
15932;BME280;8065;49.520;11.284;2022-10-31T09:01:11;97933.19;;;21.05;74.60
15932;BME280;8065;49.520;11.284;2022-10-31T09:03:38;97931.31;;;21.81;74.06
15932;BME280;8065;49.520;11.284;2022-10-31T09:06:05;97926.22;;;21.66;73.69
15932;BME280;8065;49.520;11.284;2022-10-31T09:08:35;97923.78;;;22.37;72.69
15932;BME280;8065;49.520;11.284;2022-10-31T09:11:02;97921.28;;;21.92;72.53
15932;BME280;8065;49.520;11.284;2022-10-31T09:13:29;97926.47;;;22.30;72.74
15932;BME280;8065;49.520;11.284;2022-10-31T09:15:57;97917.56;;;22.36;71.29
15932;BME280;8065;49.520;11.284;2022-10-31T09:18:25;97921.44;;;22.64;70.10
15932;BME280;8065;49.520;11.284;2022-10-31T09:20:53;97924.56;;;22.76;70.36
15932;BME280;8065;49.520;11.284;2022-10-31T09:23:21;97922.25;;;22.75;70.39
15932;BME280;8065;49.520;11.284;2022-10-31T09:25:49;97925.31;;;22.70;70.82
15932;BME280;8065;49.520;11.284;2022-10-31T09:28:16;97921.47;;;23.03;70.30
15932;BME280;8065;49.520;11.284;2022-10-31T09:30:46;97923.78;;;23.18;70.47
15932;BME280;8065;49.520;11.284;2022-10-31T09:33:14;97917.50;;;23.50;68.36
15932;BME280;8065;49.520;11.284;2022-10-31T09:35:41;97922.44;;;23.91;67.33
15932;BME280;8065;49.520;11.284;2022-10-31T09:38:09;97920.50;;;23.88;66.63
15932;BME280;8065;49.520;11.284;2022-10-31T09:40:38;97921.94;;;24.13;67.55
15932;BME280;8065;49.520;11.284;2022-10-31T09:43:14;97920.53;;;23.80;67.87
15932;BME280;8065;49.520;11.284;2022-10-31T09:45:49;97916.50;;;24.13;67.46
15932;BME280;8065;49.520;11.284;2022-10-31T09:48:39;97914.88;;;24.23;67.23
15932;BME280;8065;49.520;11.284;2022-10-31T09:51:12;97906.50;;;23.96;68.34
15932;BME280;8065;49.520;11.284;2022-10-31T09:53:45;97917.34;;;24.00;67.02
15932;BME280;8065;49.520;11.284;2022-10-31T09:56:13;97909.47;;;24.23;66.95
15932;BME280;8065;49.520;11.284;2022-10-31T09:58:44;97900.69;;;24.57;66.43
15932;BME280;8065;49.520;11.284;2022-10-31T10:01:21;97907.81;;;24.36;66.68
15932;BME280;8065;49.520;11.284;2022-10-31T10:03:55;97901.22;;;24.37;66.88
15932;BME280;8065;49.520;11.284;2022-10-31T10:06:27;97897.66;;;24.47;65.60
15932;BME280;8065;49.520;11.284;2022-10-31T10:08:55;97900.97;;;24.73;66.19
15932;BME280;8065;49.520;11.284;2022-10-31T10:11:32;97889.41;;;25.10;65.63
15932;BME280;8065;49.520;11.284;2022-10-31T10:14:07;97897.09;;;25.15;65.57
15932;BME280;8065;49.520;11.284;2022-10-31T10:16:48;97888.22;;;25.45;65.41
15932;BME280;8065;49.520;11.284;2022-10-31T10:19:30;97882.63;;;25.59;65.79
15932;BME280;8065;49.520;11.284;2022-10-31T10:22:05;97881.03;;;25.62;64.45
15932;BME280;8065;49.520;11.284;2022-10-31T10:24:55;97881.84;;;25.25;64.32
15932;BME280;8065;49.520;11.284;2022-10-31T10:27:30;97868.94;;;25.66;65.37
15932;BME280;8065;49.520;11.284;2022-10-31T10:30:04;97868.31;;;25.86;63.98
15932;BME280;8065;49.520;11.284;2022-10-31T10:32:41;97862.19;;;26.05;64.12
15932;BME280;8065;49.520;11.284;2022-10-31T10:35:19;97863.09;;;25.68;64.58
15932;BME280;8065;49.520;11.284;2022-10-31T10:37:49;97856.94;;;25.60;64.76
15932;BME280;8065;49.520;11.284;2022-10-31T10:40:18;97847.66;;;26.15;64.00
15932;BME280;8065;49.520;11.284;2022-10-31T10:42:52;97845.06;;;26.04;63.73
15932;BME280;8065;49.520;11.284;2022-10-31T10:45:39;97841.38;;;26.18;64.67
15932;BME280;8065;49.520;11.284;2022-10-31T10:48:30;97839.91;;;26.64;63.59
15932;BME280;8065;49.520;11.284;2022-10-31T10:51:01;97835.63;;;26.63;62.33
15932;BME280;8065;49.520;11.284;2022-10-31T10:53:39;97829.88;;;26.34;63.40
15932;BME280;8065;49.520;11.284;2022-10-31T10:56:33;97830.59;;;26.61;63.77
15932;BME280;8065;49.520;11.284;2022-10-31T10:59:03;97827.16;;;26.81;63.79
15932;BME280;8065;49.520;11.284;2022-10-31T11:01:29;97821.81;;;26.93;63.58
15932;BME280;8065;49.520;11.284;2022-10-31T11:03:56;97829.06;;;27.03;62.55
15932;BME280;8065;49.520;11.284;2022-10-31T11:06:24;97819.75;;;26.58;62.64
15932;BME280;8065;49.520;11.284;2022-10-31T11:08:52;97821.41;;;26.52;62.18
15932;BME280;8065;49.520;11.284;2022-10-31T11:11:26;97815.72;;;26.66;62.51
15932;BME280;8065;49.520;11.284;2022-10-31T11:13:59;97811.44;;;27.08;61.71
15932;BME280;8065;49.520;11.284;2022-10-31T11:16:32;97806.88;;;26.82;59.93
15932;BME280;8065;49.520;11.284;2022-10-31T11:19:08;97810.13;;;26.73;61.31
15932;BME280;8065;49.520;11.284;2022-10-31T11:21:42;97799.41;;;27.05;59.95
15932;BME280;8065;49.520;11.284;2022-10-31T11:24:14;97802.00;;;27.13;60.05
15932;BME280;8065;49.520;11.284;2022-10-31T11:26:43;97799.28;;;27.13;59.40
15932;BME280;8065;49.520;11.284;2022-10-31T11:29:14;97794.09;;;26.98;59.06
15932;BME280;8065;49.520;11.284;2022-10-31T11:31:42;97788.81;;;26.88;60.04
15932;BME280;8065;49.520;11.284;2022-10-31T11:34:16;97778.56;;;26.52;59.13
15932;BME280;8065;49.520;11.284;2022-10-31T11:36:45;97777.06;;;26.48;60.17
15932;BME280;8065;49.520;11.284;2022-10-31T11:39:17;97775.09;;;26.25;61.74
15932;BME280;8065;49.520;11.284;2022-10-31T11:41:44;97766.72;;;26.12;63.18
15932;BME280;8065;49.520;11.284;2022-10-31T11:44:15;97771.13;;;26.29;61.77
15932;BME280;8065;49.520;11.284;2022-10-31T11:46:45;97768.09;;;26.24;60.63
15932;BME280;8065;49.520;11.284;2022-10-31T11:49:16;97763.75;;;26.03;61.90
15932;BME280;8065;49.520;11.284;2022-10-31T11:51:47;97759.84;;;26.04;61.46
15932;BME280;8065;49.520;11.284;2022-10-31T11:54:21;97755.16;;;25.81;59.20
15932;BME280;8065;49.520;11.284;2022-10-31T11:56:51;97754.03;;;25.78;60.93
15932;BME280;8065;49.520;11.284;2022-10-31T11:59:24;97761.53;;;25.98;60.52
15932;BME280;8065;49.520;11.284;2022-10-31T12:01:53;97752.09;;;25.79;60.57
15932;BME280;8065;49.520;11.284;2022-10-31T12:04:24;97749.66;;;25.85;58.91
15932;BME280;8065;49.520;11.284;2022-10-31T12:06:55;97754.91;;;25.99;59.20
15932;BME280;8065;49.520;11.284;2022-10-31T12:09:23;97746.91;;;25.88;58.55
15932;BME280;8065;49.520;11.284;2022-10-31T12:12:02;97746.94;;;25.85;56.60
15932;BME280;8065;49.520;11.284;2022-10-31T12:14:35;97743.47;;;25.54;57.26
15932;BME280;8065;49.520;11.284;2022-10-31T12:17:11;97749.31;;;25.83;57.07
15932;BME280;8065;49.520;11.284;2022-10-31T12:19:42;97734.00;;;25.65;55.73
15932;BME280;8065;49.520;11.284;2022-10-31T12:22:19;97734.13;;;25.55;54.67
15932;BME280;8065;49.520;11.284;2022-10-31T12:25:07;97733.31;;;25.58;53.68
15932;BME280;8065;49.520;11.284;2022-10-31T12:27:50;97726.91;;;25.71;55.03
15932;BME280;8065;49.520;11.284;2022-10-31T12:30:21;97726.81;;;25.78;55.39
15932;BME280;8065;49.520;11.284;2022-10-31T12:33:12;97724.16;;;25.98;54.33
15932;BME280;8065;49.520;11.284;2022-10-31T12:35:47;97719.09;;;25.73;53.46
15932;BME280;8065;49.520;11.284;2022-10-31T12:38:33;97708.88;;;25.81;53.04
15932;BME280;8065;49.520;11.284;2022-10-31T12:41:15;97712.84;;;25.76;53.10
15932;BME280;8065;49.520;11.284;2022-10-31T12:43:46;97713.19;;;25.78;52.49
15932;BME280;8065;49.520;11.284;2022-10-31T12:46:25;97707.56;;;25.62;53.05
15932;BME280;8065;49.520;11.284;2022-10-31T12:49:17;97702.41;;;25.71;53.59
15932;BME280;8065;49.520;11.284;2022-10-31T12:51:56;97701.69;;;25.67;53.44
15932;BME280;8065;49.520;11.284;2022-10-31T12:54:36;97709.69;;;25.78;53.57
15932;BME280;8065;49.520;11.284;2022-10-31T12:57:14;97696.66;;;25.66;52.67
15932;BME280;8065;49.520;11.284;2022-10-31T12:59:46;97696.44;;;25.53;52.36
15932;BME280;8065;49.520;11.284;2022-10-31T13:02:19;97687.19;;;25.47;51.60
15932;BME280;8065;49.520;11.284;2022-10-31T13:04:50;97690.00;;;25.13;52.35
15932;BME280;8065;49.520;11.284;2022-10-31T13:07:22;97683.50;;;25.34;52.04
15932;BME280;8065;49.520;11.284;2022-10-31T13:09:55;97682.25;;;25.38;52.74
15932;BME280;8065;49.520;11.284;2022-10-31T13:12:23;97673.78;;;25.33;51.90
15932;BME280;8065;49.520;11.284;2022-10-31T13:14:52;97677.44;;;25.23;50.75
15932;BME280;8065;49.520;11.284;2022-10-31T13:17:25;97667.72;;;25.22;51.57